createdAt,value
2018-10-03T00:00:34.134Z,968.80
2018-10-03T00:01:34.015Z,968.79
2018-10-03T00:02:34.140Z,968.86
2018-10-03T00:03:33.897Z,968.83
2018-10-03T00:04:33.901Z,968.84
2018-10-03T00:05:33.900Z,968.84
2018-10-03T00:06:33.780Z,968.83
2018-10-03T00:07:34.022Z,968.82
2018-10-03T00:08:33.663Z,968.82
2018-10-03T00:09:33.665Z,968.90
2018-10-03T00:10:33.545Z,968.86
2018-10-03T00:11:33.545Z,968.88
2018-10-03T00:12:33.547Z,968.87
2018-10-03T00:13:33.427Z,968.81
2018-10-03T00:14:33.428Z,968.84
2018-10-03T00:15:33.315Z,968.84
2018-10-03T00:16:33.313Z,968.74
2018-10-03T00:17:33.311Z,968.86
2018-10-03T00:18:33.193Z,968.81
2018-10-03T00:19:33.193Z,968.88
2018-10-03T00:20:33.193Z,968.89
2018-10-03T00:21:32.954Z,968.84
2018-10-03T00:22:32.956Z,968.87
2018-10-03T00:23:32.958Z,968.87
2018-10-03T00:24:32.838Z,968.89
2018-10-03T00:25:32.960Z,968.90
2018-10-03T00:26:32.723Z,968.94
2018-10-03T00:27:32.720Z,968.92
2018-10-03T00:28:32.601Z,968.94
2018-10-03T00:29:32.603Z,968.93
2018-10-03T00:30:32.604Z,969.01
2018-10-03T00:31:32.484Z,968.90
2018-10-03T00:32:32.485Z,968.94
2018-10-03T00:33:32.365Z,968.94
2018-10-03T00:34:32.366Z,968.95
2018-10-03T00:35:32.367Z,968.98
2018-10-03T00:36:32.186Z,968.99
2018-10-03T00:37:32.095Z,968.94
2018-10-03T00:38:33.090Z,968.95
2018-10-03T00:39:32.012Z,968.94
2018-10-03T00:40:32.068Z,968.91
2018-10-03T00:41:31.828Z,968.99
2018-10-03T00:42:31.828Z,968.95
2018-10-03T00:43:31.784Z,968.97
2018-10-03T00:44:31.779Z,969.01
2018-10-03T00:45:31.712Z,968.98
2018-10-03T00:46:31.590Z,969.00
2018-10-03T00:47:31.546Z,969.00
2018-10-03T00:48:31.476Z,968.94
2018-10-03T00:49:31.474Z,968.87
2018-10-03T00:50:31.428Z,968.89
2018-10-03T00:51:31.354Z,968.88
2018-10-03T00:52:31.309Z,968.87
2018-10-03T00:53:31.193Z,968.87
2018-10-03T00:54:31.191Z,968.95
2018-10-03T00:55:31.078Z,968.91
2018-10-03T00:56:31.116Z,969.03
2018-10-03T00:57:30.996Z,968.97
2018-10-03T00:58:36.475Z,969.00
2018-10-03T00:59:30.874Z,968.96
2018-10-03T01:00:30.880Z,968.90
2018-10-03T01:01:30.836Z,968.90
2018-10-03T01:02:30.717Z,968.85
2018-10-03T01:03:30.718Z,968.83
2018-10-03T01:04:30.602Z,968.84
2018-10-03T01:05:30.723Z,968.81
2018-10-03T01:06:30.520Z,968.87
2018-10-03T01:07:30.481Z,968.94
2018-10-03T01:08:30.403Z,968.91
2018-10-03T01:09:30.364Z,968.84
2018-10-03T01:10:30.363Z,968.83
2018-10-03T01:11:30.243Z,968.89
2018-10-03T01:12:30.245Z,968.83
2018-10-03T01:13:30.128Z,968.80
2018-10-03T01:14:30.126Z,968.69
2018-10-03T01:15:30.127Z,968.75
2018-10-03T01:16:30.008Z,968.70
2018-10-03T01:17:29.930Z,968.78
2018-10-03T01:18:29.924Z,968.79
2018-10-03T01:19:29.804Z,968.74
2018-10-03T01:20:29.774Z,968.72
2018-10-03T01:21:29.772Z,968.73
2018-10-03T01:22:29.657Z,968.71
2018-10-03T01:23:29.687Z,968.64
2018-10-03T01:24:29.569Z,968.69
2018-10-03T01:25:29.570Z,968.69
2018-10-03T01:26:29.450Z,968.70
2018-10-03T01:27:29.419Z,968.67
2018-10-03T01:28:29.336Z,968.68
2018-10-03T01:29:29.339Z,968.67
2018-10-03T01:30:29.338Z,968.64
2018-10-03T01:31:29.186Z,968.68
2018-10-03T01:32:29.185Z,968.72
2018-10-03T01:33:29.087Z,968.68
2018-10-03T01:34:29.066Z,968.66
2018-10-03T01:35:29.066Z,968.68
2018-10-03T01:36:28.978Z,968.64
2018-10-03T01:37:28.871Z,968.67
2018-10-03T01:38:28.963Z,968.73
2018-10-03T01:39:28.831Z,968.77
2018-10-03T01:40:28.765Z,968.71
2018-10-03T01:41:28.713Z,968.77
2018-10-03T01:42:28.610Z,968.74
2018-10-03T01:43:28.593Z,968.68
2018-10-03T01:44:28.515Z,968.78
2018-10-03T01:45:28.525Z,968.79
2018-10-03T01:46:28.423Z,968.72
2018-10-03T01:47:28.357Z,968.79
2018-10-03T01:48:28.373Z,968.82
2018-10-03T01:49:28.240Z,968.84
2018-10-03T01:50:28.241Z,968.85
2018-10-03T01:51:28.134Z,968.84
2018-10-03T01:52:28.126Z,968.98
2018-10-03T01:53:31.492Z,968.95
2018-10-03T01:54:28.005Z,968.92
2018-10-03T01:55:27.929Z,968.88
2018-10-03T01:56:27.890Z,969.04
2018-10-03T01:57:27.812Z,969.03
2018-10-03T01:58:27.807Z,968.99
2018-10-03T01:59:27.769Z,968.97
2018-10-03T02:00:27.658Z,968.98
2018-10-03T02:01:27.652Z,968.97
2018-10-03T02:02:27.565Z,968.96
2018-10-03T02:03:27.585Z,968.88
2018-10-03T02:04:27.451Z,968.96
2018-10-03T02:05:27.419Z,968.98
2018-10-03T02:06:27.332Z,969.02
2018-10-03T02:07:27.332Z,968.95
2018-10-03T02:08:27.302Z,968.91
2018-10-03T02:09:27.185Z,968.84
2018-10-03T02:10:27.190Z,968.83
2018-10-03T02:11:27.090Z,968.83
2018-10-03T02:12:27.096Z,968.87
2018-10-03T02:13:26.976Z,968.90
2018-10-03T02:14:26.944Z,968.85
2018-10-03T02:15:26.858Z,968.89
2018-10-03T02:16:26.826Z,968.85
2018-10-03T02:17:26.826Z,968.86
2018-10-03T02:18:26.746Z,968.91
2018-10-03T02:19:26.709Z,968.92
2018-10-03T02:20:26.595Z,968.90
2018-10-03T02:21:26.590Z,968.90
2018-10-03T02:22:26.592Z,968.80
2018-10-03T02:23:26.472Z,968.82
2018-10-03T02:24:26.386Z,968.88
2018-10-03T02:25:26.354Z,968.88
2018-10-03T02:26:26.355Z,968.89
2018-10-03T02:27:26.237Z,968.90
2018-10-03T02:28:26.237Z,968.89
2018-10-03T02:29:26.151Z,968.93
2018-10-03T02:30:26.119Z,968.91
2018-10-03T02:31:26.121Z,968.96
2018-10-03T02:32:26.001Z,968.95
2018-10-03T02:33:26.001Z,968.99
2018-10-03T02:34:25.886Z,968.99
2018-10-03T02:35:25.885Z,969.01
2018-10-03T02:36:25.767Z,969.04
2018-10-03T02:37:25.767Z,969.01
2018-10-03T02:38:25.769Z,969.03
2018-10-03T02:39:25.647Z,969.01
2018-10-03T02:40:25.649Z,969.08
2018-10-03T02:41:25.529Z,969.06
2018-10-03T02:42:25.447Z,969.04
2018-10-03T02:43:25.412Z,969.01
2018-10-03T02:44:25.424Z,969.00
2018-10-03T02:45:25.415Z,968.94
2018-10-03T02:46:25.418Z,968.94
2018-10-03T02:47:25.216Z,968.94
2018-10-03T02:48:25.177Z,968.96
2018-10-03T02:49:25.099Z,969.02
2018-10-03T02:50:25.058Z,969.01
2018-10-03T02:51:25.059Z,969.03
2018-10-03T02:52:25.060Z,969.03
2018-10-03T02:53:24.942Z,969.03
2018-10-03T02:54:24.872Z,969.00
2018-10-03T02:55:24.943Z,969.00
2018-10-03T02:56:24.827Z,969.01
2018-10-03T02:57:24.826Z,969.05
2018-10-03T02:58:24.706Z,969.07
2018-10-03T02:59:24.707Z,969.10
2018-10-03T03:00:24.709Z,969.08
2018-10-03T03:01:24.710Z,969.05
2018-10-03T03:02:24.591Z,969.01
2018-10-03T03:03:24.473Z,968.99
2018-10-03T03:04:24.473Z,969.01
2018-10-03T03:05:24.356Z,969.04
2018-10-03T03:06:24.474Z,969.06
2018-10-03T03:07:24.236Z,969.00
2018-10-03T03:08:24.365Z,969.01
2018-10-03T03:09:24.119Z,969.01
2018-10-03T03:10:24.119Z,969.03
2018-10-03T03:11:24.119Z,969.05
2018-10-03T03:12:24.120Z,969.07
2018-10-03T03:13:24.002Z,969.08
2018-10-03T03:14:23.887Z,969.04
2018-10-03T03:15:23.883Z,969.05
2018-10-03T03:16:23.764Z,969.05
2018-10-03T03:17:23.885Z,969.03
2018-10-03T03:18:23.769Z,969.07
2018-10-03T03:19:23.650Z,969.09
2018-10-03T03:20:23.649Z,969.08
2018-10-03T03:21:23.655Z,969.14
2018-10-03T03:22:23.534Z,969.11
2018-10-03T03:23:23.411Z,969.10
2018-10-03T03:24:23.412Z,969.10
2018-10-03T03:25:23.293Z,969.08
2018-10-03T03:26:23.415Z,969.08
2018-10-03T03:27:23.175Z,969.11
2018-10-03T03:28:23.180Z,969.07
2018-10-03T03:29:23.180Z,969.08
2018-10-03T03:30:23.189Z,969.09
2018-10-03T03:31:23.180Z,969.02
2018-10-03T03:32:22.939Z,969.06
2018-10-03T03:33:22.942Z,969.08
2018-10-03T03:34:22.940Z,969.09
2018-10-03T03:35:22.943Z,969.10
2018-10-03T03:36:22.823Z,969.13
2018-10-03T03:37:22.705Z,969.11
2018-10-03T03:38:22.705Z,969.13
2018-10-03T03:39:22.586Z,969.18
2018-10-03T03:40:22.607Z,969.21
2018-10-03T03:41:22.589Z,969.23
2018-10-03T03:42:22.470Z,969.28
2018-10-03T03:43:22.351Z,969.28
2018-10-03T03:44:22.350Z,969.26
2018-10-03T03:45:22.356Z,969.28
2018-10-03T03:46:22.235Z,969.28
2018-10-03T03:47:22.233Z,969.33
2018-10-03T03:48:22.114Z,969.33
2018-10-03T03:49:22.117Z,969.37
2018-10-03T03:50:22.131Z,969.37
2018-10-03T03:51:21.998Z,969.37
2018-10-03T03:52:21.882Z,969.41
2018-10-03T03:53:21.881Z,969.43
2018-10-03T03:54:21.698Z,969.40
2018-10-03T03:55:21.817Z,969.40
2018-10-03T03:56:21.698Z,969.41
2018-10-03T03:57:21.578Z,969.38
2018-10-03T03:58:21.576Z,969.42
2018-10-03T03:59:21.413Z,969.41
2018-10-03T04:00:21.648Z,969.42
2018-10-03T04:01:21.344Z,969.46
2018-10-03T04:02:21.299Z,969.43
2018-10-03T04:03:21.223Z,969.44
2018-10-03T04:04:21.176Z,969.40
2018-10-03T04:05:21.178Z,969.44
2018-10-03T04:06:21.061Z,969.45
2018-10-03T04:07:21.063Z,969.45
2018-10-03T04:08:20.942Z,969.44
2018-10-03T04:09:20.944Z,969.41
2018-10-03T04:10:20.944Z,969.41
2018-10-03T04:11:20.824Z,969.40
2018-10-03T04:12:20.746Z,969.40
2018-10-03T04:13:20.705Z,969.41
2018-10-03T04:14:21.473Z,969.43
2018-10-03T04:15:20.628Z,969.44
2018-10-03T04:16:20.590Z,969.45
2018-10-03T04:17:20.514Z,969.45
2018-10-03T04:18:20.470Z,969.44
2018-10-03T04:19:20.468Z,969.44
2018-10-03T04:20:20.352Z,969.44
2018-10-03T04:21:20.353Z,969.42
2018-10-03T04:22:20.231Z,969.46
2018-10-03T04:23:20.231Z,969.48
2018-10-03T04:24:20.157Z,969.53
2018-10-03T04:25:20.117Z,969.45
2018-10-03T04:26:20.034Z,969.48
2018-10-03T04:27:20.032Z,969.48
2018-10-03T04:28:19.909Z,969.42
2018-10-03T04:29:19.876Z,969.46
2018-10-03T04:30:19.877Z,969.51
2018-10-03T04:31:19.758Z,969.54
2018-10-03T04:32:19.757Z,969.55
2018-10-03T04:33:19.642Z,969.54
2018-10-03T04:34:19.640Z,969.55
2018-10-03T04:35:19.640Z,969.52
2018-10-03T04:36:19.521Z,969.52
2018-10-03T04:37:19.439Z,969.57
2018-10-03T04:38:19.404Z,969.50
2018-10-03T04:39:19.319Z,969.53
2018-10-03T04:40:19.320Z,969.55
2018-10-03T04:41:19.318Z,969.52
2018-10-03T04:42:19.204Z,969.57
2018-10-03T04:43:19.172Z,969.54
2018-10-03T04:44:19.080Z,969.53
2018-10-03T04:45:19.050Z,969.51
2018-10-03T04:46:19.052Z,969.58
2018-10-03T04:47:18.933Z,969.61
2018-10-03T04:48:18.932Z,969.61
2018-10-03T04:49:18.845Z,969.66
2018-10-03T04:50:18.849Z,969.68
2018-10-03T04:51:18.732Z,969.67
2018-10-03T04:52:18.697Z,969.71
2018-10-03T04:53:18.699Z,969.65
2018-10-03T04:54:18.579Z,969.72
2018-10-03T04:55:18.501Z,969.75
2018-10-03T04:56:18.461Z,969.77
2018-10-03T04:57:18.396Z,969.77
2018-10-03T04:58:18.397Z,969.74
2018-10-03T04:59:18.344Z,969.76
2018-10-03T05:00:18.345Z,969.76
2018-10-03T05:01:18.226Z,969.74
2018-10-03T05:02:18.227Z,969.73
2018-10-03T05:03:18.107Z,969.74
2018-10-03T05:04:18.044Z,969.78
2018-10-03T05:05:18.109Z,969.82
2018-10-03T05:06:17.990Z,969.82
2018-10-03T05:07:17.873Z,969.84
2018-10-03T05:08:17.873Z,969.86
2018-10-03T05:09:17.771Z,969.87
2018-10-03T05:10:17.876Z,969.88
2018-10-03T05:11:17.757Z,969.85
2018-10-03T05:12:17.637Z,969.92
2018-10-03T05:13:17.560Z,969.84
2018-10-03T05:14:17.522Z,969.92
2018-10-03T05:15:17.528Z,969.88
2018-10-03T05:16:17.423Z,969.90
2018-10-03T05:17:17.404Z,969.91
2018-10-03T05:18:17.329Z,970.01
2018-10-03T05:19:17.294Z,969.98
2018-10-03T05:20:17.207Z,970.01
2018-10-03T05:21:17.207Z,969.97
2018-10-03T05:22:17.204Z,969.99
2018-10-03T05:23:17.059Z,970.02
2018-10-03T05:24:17.057Z,970.03
2018-10-03T05:25:16.936Z,970.09
2018-10-03T05:26:16.936Z,970.07
2018-10-03T05:27:16.933Z,970.09
2018-10-03T05:28:16.811Z,970.12
2018-10-03T05:29:16.735Z,970.14
2018-10-03T05:30:16.696Z,970.17
2018-10-03T05:31:16.695Z,970.18
2018-10-03T05:32:16.575Z,970.19
2018-10-03T05:33:16.630Z,970.23
2018-10-03T05:34:16.466Z,970.23
2018-10-03T05:35:16.495Z,970.24
2018-10-03T05:36:16.373Z,970.22
2018-10-03T05:37:16.346Z,970.23
2018-10-03T05:38:16.255Z,970.27
2018-10-03T05:39:16.259Z,970.33
2018-10-03T05:40:16.223Z,970.37
2018-10-03T05:41:16.142Z,970.35
2018-10-03T05:42:16.106Z,970.38
2018-10-03T05:43:15.992Z,970.39
2018-10-03T05:44:15.987Z,970.43
2018-10-03T05:45:15.914Z,970.46
2018-10-03T05:46:15.911Z,970.49
2018-10-03T05:47:15.783Z,970.49
2018-10-03T05:48:15.809Z,970.54
2018-10-03T05:49:15.669Z,970.49
2018-10-03T05:50:15.634Z,970.49
2018-10-03T05:51:15.670Z,970.54
2018-10-03T05:52:15.548Z,970.52
2018-10-03T05:53:15.519Z,970.52
2018-10-03T05:54:15.517Z,970.53
2018-10-03T05:55:15.397Z,970.51
2018-10-03T05:56:15.319Z,970.50
2018-10-03T05:57:15.279Z,970.53
2018-10-03T05:58:15.280Z,970.54
2018-10-03T05:59:15.163Z,970.56
2018-10-03T06:00:15.195Z,970.61
2018-10-03T06:01:15.165Z,970.62
2018-10-03T06:02:15.045Z,970.65
2018-10-03T06:03:14.967Z,970.66
2018-10-03T06:04:14.926Z,970.69
2018-10-03T06:05:14.845Z,970.72
2018-10-03T06:06:14.928Z,970.73
2018-10-03T06:07:14.811Z,970.78
2018-10-03T06:08:14.726Z,970.73
2018-10-03T06:09:14.812Z,970.78
2018-10-03T06:10:14.606Z,970.77
2018-10-03T06:11:14.574Z,970.75
2018-10-03T06:12:14.570Z,970.71
2018-10-03T06:13:14.456Z,970.75
2018-10-03T06:14:14.456Z,970.76
2018-10-03T06:15:14.458Z,970.74
2018-10-03T06:16:14.339Z,970.75
2018-10-03T06:17:14.339Z,970.77
2018-10-03T06:18:14.341Z,970.76
2018-10-03T06:19:14.343Z,970.73
2018-10-03T06:20:14.343Z,970.76
2018-10-03T06:21:14.103Z,970.74
2018-10-03T06:22:14.105Z,970.75
2018-10-03T06:23:13.986Z,970.81
2018-10-03T06:24:13.988Z,970.77
2018-10-03T06:25:14.108Z,970.80
2018-10-03T06:26:13.868Z,970.83
2018-10-03T06:27:13.868Z,970.80
2018-10-03T06:28:13.796Z,970.85
2018-10-03T06:29:13.870Z,970.88
2018-10-03T06:30:13.633Z,970.88
2018-10-03T06:31:13.633Z,970.90
2018-10-03T06:32:13.636Z,970.92
2018-10-03T06:33:13.516Z,970.88
2018-10-03T06:34:13.640Z,970.92
2018-10-03T06:35:13.398Z,970.92
2018-10-03T06:36:13.400Z,970.93
2018-10-03T06:37:13.279Z,970.97
2018-10-03T06:38:13.402Z,971.03
2018-10-03T06:39:13.314Z,971.07
2018-10-03T06:40:13.163Z,971.09
2018-10-03T06:41:13.164Z,971.11
2018-10-03T06:42:13.046Z,971.12
2018-10-03T06:43:13.047Z,971.15
2018-10-03T06:44:13.046Z,971.15
2018-10-03T06:45:12.927Z,971.15
2018-10-03T06:46:12.808Z,971.16
2018-10-03T06:47:12.935Z,971.16
2018-10-03T06:48:12.809Z,971.15
2018-10-03T06:49:12.689Z,971.17
2018-10-03T06:50:12.816Z,971.20
2018-10-03T06:51:12.572Z,971.19
2018-10-03T06:52:12.583Z,971.25
2018-10-03T06:53:12.482Z,971.25
2018-10-03T06:54:12.578Z,971.26
2018-10-03T06:55:12.336Z,971.24
2018-10-03T06:56:12.336Z,971.22
2018-10-03T06:57:12.339Z,971.20
2018-10-03T06:58:12.225Z,971.18
2018-10-03T06:59:12.340Z,971.20
2018-10-03T07:00:12.107Z,971.23
2018-10-03T07:01:12.101Z,971.23
2018-10-03T07:02:11.984Z,971.18
2018-10-03T07:03:11.986Z,971.26
2018-10-03T07:04:11.985Z,971.30
2018-10-03T07:05:11.867Z,971.35
2018-10-03T07:06:11.986Z,971.38
2018-10-03T07:07:11.748Z,971.35
2018-10-03T07:08:11.749Z,971.43
2018-10-03T07:09:11.629Z,971.46
2018-10-03T07:10:11.629Z,971.39
2018-10-03T07:11:11.631Z,971.41
2018-10-03T07:12:11.512Z,971.39
2018-10-03T07:13:11.501Z,971.39
2018-10-03T07:14:11.330Z,971.42
2018-10-03T07:15:11.514Z,971.45
2018-10-03T07:16:11.212Z,971.45
2018-10-03T07:17:11.212Z,971.48
2018-10-03T07:18:11.093Z,971.51
2018-10-03T07:19:11.051Z,971.52
2018-10-03T07:20:11.140Z,971.50
2018-10-03T07:21:10.973Z,971.54
2018-10-03T07:22:11.041Z,971.53
2018-10-03T07:23:10.850Z,971.50
2018-10-03T07:24:10.813Z,971.48
2018-10-03T07:25:12.010Z,971.48
2018-10-03T07:26:10.701Z,971.48
2018-10-03T07:27:10.616Z,971.46
2018-10-03T07:28:10.617Z,971.48
2018-10-03T07:29:10.575Z,971.51
2018-10-03T07:30:10.454Z,971.51
2018-10-03T07:31:10.457Z,971.52
2018-10-03T07:32:10.384Z,971.57
2018-10-03T07:33:10.377Z,971.57
2018-10-03T07:34:10.263Z,971.60
2018-10-03T07:35:10.217Z,971.61
2018-10-03T07:36:10.222Z,971.69
2018-10-03T07:37:10.101Z,971.75
2018-10-03T07:38:10.154Z,971.73
2018-10-03T07:39:10.019Z,971.77
2018-10-03T07:40:09.982Z,971.79
2018-10-03T07:41:09.903Z,971.80
2018-10-03T07:42:09.863Z,971.84
2018-10-03T07:43:09.864Z,971.81
2018-10-03T07:44:09.810Z,971.81
2018-10-03T07:45:09.748Z,971.82
2018-10-03T07:46:09.746Z,971.79
2018-10-03T07:47:09.628Z,971.88
2018-10-03T07:48:09.655Z,971.93
2018-10-03T07:49:09.509Z,971.93
2018-10-03T07:50:09.510Z,971.91
2018-10-03T07:51:09.394Z,971.92
2018-10-03T07:52:09.391Z,971.91
2018-10-03T07:53:09.392Z,971.94
2018-10-03T07:54:09.276Z,971.92
2018-10-03T07:55:09.188Z,971.95
2018-10-03T07:56:09.208Z,972.16
2018-10-03T07:57:09.156Z,972.13
2018-10-03T07:58:09.077Z,972.20
2018-10-03T07:59:09.098Z,972.17
2018-10-03T08:00:08.954Z,972.18
2018-10-03T08:01:08.919Z,972.29
2018-10-03T08:02:08.840Z,972.27
2018-10-03T08:03:08.922Z,972.16
2018-10-03T08:04:08.803Z,972.27
2018-10-03T08:05:08.720Z,972.29
2018-10-03T08:06:08.686Z,972.33
2018-10-03T08:07:08.600Z,972.23
2018-10-03T08:08:08.603Z,972.26
2018-10-03T08:09:08.570Z,972.41
2018-10-03T08:10:08.512Z,972.33
2018-10-03T08:11:08.454Z,972.25
2018-10-03T08:12:08.367Z,972.23
2018-10-03T08:13:08.370Z,972.29
2018-10-03T08:14:08.468Z,972.19
2018-10-03T08:15:08.246Z,972.18
2018-10-03T08:16:08.216Z,972.28
2018-10-03T08:17:08.147Z,972.23
2018-10-03T08:18:08.096Z,972.28
2018-10-03T08:19:08.222Z,972.29
2018-10-03T08:20:08.025Z,972.24
2018-10-03T08:21:08.032Z,972.30
2018-10-03T08:22:07.986Z,972.31
2018-10-03T08:23:07.863Z,972.33
2018-10-03T08:24:07.877Z,972.42
2018-10-03T08:25:07.759Z,972.37
2018-10-03T08:26:07.745Z,972.40
2018-10-03T08:27:07.671Z,972.39
2018-10-03T08:28:07.626Z,972.41
2018-10-03T08:29:07.643Z,972.49
2018-10-03T08:30:07.544Z,972.59
2018-10-03T08:31:07.521Z,972.51
2018-10-03T08:32:07.434Z,972.56
2018-10-03T08:33:07.465Z,972.57
2018-10-03T08:34:07.403Z,972.57
2018-10-03T08:35:07.282Z,972.62
2018-10-03T08:36:07.421Z,972.59
2018-10-03T08:37:07.301Z,972.53
2018-10-03T08:38:07.173Z,972.55
2018-10-03T08:39:07.302Z,972.64
2018-10-03T08:40:07.173Z,972.57
2018-10-03T08:41:07.044Z,972.61
2018-10-03T08:42:06.974Z,972.65
2018-10-03T08:43:06.958Z,972.64
2018-10-03T08:44:06.977Z,972.61
2018-10-03T08:45:06.848Z,972.60
2018-10-03T08:46:06.852Z,972.56
2018-10-03T08:47:06.814Z,972.55
2018-10-03T08:48:06.723Z,972.56
2018-10-03T08:49:06.699Z,972.59
2018-10-03T08:50:06.603Z,972.59
2018-10-03T08:51:06.688Z,972.63
2018-10-03T08:52:06.569Z,972.67
2018-10-03T08:53:06.500Z,972.63
2018-10-03T08:54:06.452Z,972.62
2018-10-03T08:55:06.457Z,972.63
2018-10-03T08:56:06.459Z,972.72
2018-10-03T08:57:06.342Z,972.69
2018-10-03T08:58:06.311Z,972.70
2018-10-03T08:59:06.227Z,972.75
2018-10-03T09:00:06.241Z,972.74
2018-10-03T09:01:06.230Z,972.74
2018-10-03T09:02:06.106Z,972.70
2018-10-03T09:03:06.110Z,972.76
2018-10-03T09:04:06.107Z,972.75
2018-10-03T09:05:05.983Z,972.81
2018-10-03T09:06:06.125Z,972.83
2018-10-03T09:07:05.878Z,972.84
2018-10-03T09:08:05.881Z,972.85
2018-10-03T09:09:05.797Z,972.84
2018-10-03T09:10:05.746Z,972.87
2018-10-03T09:11:05.665Z,972.86
2018-10-03T09:12:05.749Z,972.85
2018-10-03T09:13:05.547Z,972.87
2018-10-03T09:14:05.512Z,972.90
2018-10-03T09:15:05.512Z,972.87
2018-10-03T09:16:05.433Z,972.91
2018-10-03T09:17:05.431Z,972.83
2018-10-03T09:18:05.398Z,972.87
2018-10-03T09:19:05.275Z,972.85
2018-10-03T09:20:05.279Z,972.90
2018-10-03T09:21:05.164Z,972.93
2018-10-03T09:22:05.161Z,972.94
2018-10-03T09:23:05.286Z,972.92
2018-10-03T09:24:05.159Z,972.95
2018-10-03T09:25:05.044Z,972.93
2018-10-03T09:26:04.965Z,972.95
2018-10-03T09:27:04.932Z,972.94
2018-10-03T09:28:05.048Z,972.95
2018-10-03T09:29:04.936Z,972.97
2018-10-03T09:30:04.809Z,973.01
2018-10-03T09:31:04.932Z,972.99
2018-10-03T09:32:04.693Z,972.99
2018-10-03T09:33:04.692Z,973.01
2018-10-03T09:34:04.815Z,972.99
2018-10-03T09:35:04.585Z,972.97
2018-10-03T09:36:04.578Z,973.02
2018-10-03T09:37:04.461Z,973.02
2018-10-03T09:38:04.333Z,973.03
2018-10-03T09:39:04.456Z,973.10
2018-10-03T09:40:04.337Z,973.04
2018-10-03T09:41:04.337Z,973.04
2018-10-03T09:42:04.218Z,973.04
2018-10-03T09:43:04.219Z,973.04
2018-10-03T09:44:04.222Z,973.08
2018-10-03T09:45:04.105Z,973.10
2018-10-03T09:46:04.106Z,973.10
2018-10-03T09:47:03.984Z,973.14
2018-10-03T09:48:03.990Z,973.12
2018-10-03T09:49:03.988Z,973.10
2018-10-03T09:50:03.867Z,973.15
2018-10-03T09:51:03.865Z,973.12
2018-10-03T09:52:03.747Z,973.16
2018-10-03T09:53:03.867Z,973.14
2018-10-03T09:54:03.628Z,973.14
2018-10-03T09:55:03.629Z,973.14
2018-10-03T09:56:03.631Z,973.17
2018-10-03T09:57:03.514Z,973.23
2018-10-03T09:58:03.512Z,973.22
2018-10-03T09:59:03.393Z,973.27
2018-10-03T10:00:03.401Z,973.23
2018-10-03T10:01:03.395Z,973.25
2018-10-03T10:02:03.283Z,973.24
2018-10-03T10:03:03.277Z,973.32
2018-10-03T10:04:03.158Z,973.24
2018-10-03T10:05:03.167Z,973.26
2018-10-03T10:06:03.160Z,973.21
2018-10-03T10:07:03.042Z,973.22
2018-10-03T10:08:03.041Z,973.31
2018-10-03T10:09:02.923Z,973.29
2018-10-03T10:10:02.940Z,973.31
2018-10-03T10:11:02.945Z,973.36
2018-10-03T10:12:02.929Z,973.36
2018-10-03T10:13:02.808Z,973.42
2018-10-03T10:14:02.688Z,973.38
2018-10-03T10:15:02.689Z,973.42
2018-10-03T10:16:02.570Z,973.40
2018-10-03T10:17:02.689Z,973.42
2018-10-03T10:18:02.572Z,973.40
2018-10-03T10:19:02.452Z,973.40
2018-10-03T10:20:02.453Z,973.44
2018-10-03T10:21:02.341Z,973.29
2018-10-03T10:22:02.458Z,973.29
2018-10-03T10:23:02.338Z,973.26
2018-10-03T10:24:02.218Z,973.39
2018-10-03T10:25:02.221Z,973.36
2018-10-03T10:26:02.218Z,973.32
2018-10-03T10:27:02.100Z,973.39
2018-10-03T10:28:02.222Z,973.38
2018-10-03T10:29:01.987Z,973.37
2018-10-03T10:30:02.102Z,973.42
2018-10-03T10:31:01.865Z,973.45
2018-10-03T10:32:01.902Z,973.47
2018-10-03T10:33:01.914Z,973.49
2018-10-03T10:34:01.745Z,973.40
2018-10-03T10:35:01.804Z,973.45
2018-10-03T10:36:01.747Z,973.50
2018-10-03T10:37:01.631Z,973.48
2018-10-03T10:38:01.568Z,973.45
2018-10-03T10:39:01.510Z,973.45
2018-10-03T10:40:01.582Z,973.43
2018-10-03T10:41:01.581Z,973.51
2018-10-03T10:42:01.398Z,973.53
2018-10-03T10:43:01.396Z,973.43
2018-10-03T10:44:01.286Z,973.40
2018-10-03T10:45:01.294Z,973.42
2018-10-03T10:46:01.168Z,973.44
2018-10-03T10:47:01.097Z,973.49
2018-10-03T10:48:01.090Z,973.59
2018-10-03T10:49:01.050Z,973.57
2018-10-03T10:50:00.973Z,973.63
2018-10-03T10:51:00.928Z,973.67
2018-10-03T10:52:00.929Z,973.62
2018-10-03T10:53:00.856Z,973.62
2018-10-03T10:54:00.811Z,973.64
2018-10-03T10:55:00.742Z,973.71
2018-10-03T10:56:00.698Z,973.60
2018-10-03T10:57:00.697Z,973.54
2018-10-03T10:58:00.696Z,973.51
2018-10-03T10:59:00.589Z,973.51
2018-10-03T11:00:00.503Z,973.49
2018-10-03T11:01:00.459Z,973.45
2018-10-03T11:02:00.456Z,973.51
2018-10-03T11:03:00.457Z,973.51
2018-10-03T11:04:00.339Z,973.56
2018-10-03T11:05:00.257Z,973.62
2018-10-03T11:06:00.245Z,973.67
2018-10-03T11:07:00.224Z,973.67
2018-10-03T11:08:00.227Z,973.66
2018-10-03T11:09:00.103Z,973.70
2018-10-03T11:10:00.102Z,973.63
2018-10-03T11:11:00.021Z,973.70
2018-10-03T11:11:59.991Z,973.70
2018-10-03T11:12:59.898Z,973.73
2018-10-03T11:13:59.864Z,973.73
2018-10-03T11:14:59.867Z,973.75
2018-10-03T11:15:59.866Z,973.81
2018-10-03T11:16:59.781Z,973.87
2018-10-03T11:17:59.670Z,973.81
2018-10-03T11:18:59.632Z,973.83
2018-10-03T11:19:59.634Z,973.85
2018-10-03T11:20:59.631Z,973.83
2018-10-03T11:21:59.516Z,973.90
2018-10-03T11:22:59.423Z,973.90
2018-10-03T11:23:59.522Z,973.91
2018-10-03T11:24:59.441Z,973.94
2018-10-03T11:25:59.396Z,973.89
2018-10-03T11:26:59.281Z,973.90
2018-10-03T11:27:59.279Z,973.89
2018-10-03T11:28:59.168Z,973.90
2018-10-03T11:29:59.161Z,973.96
2018-10-03T11:30:59.160Z,973.97
2018-10-03T11:31:59.079Z,973.89
2018-10-03T11:32:59.045Z,973.87
2018-10-03T11:33:58.956Z,973.92
2018-10-03T11:34:58.930Z,973.82
2018-10-03T11:35:58.928Z,973.88
2018-10-03T11:36:58.808Z,973.81
2018-10-03T11:37:58.807Z,973.83
2018-10-03T11:38:58.724Z,973.83
2018-10-03T11:39:58.691Z,973.78
2018-10-03T11:40:58.733Z,973.79
2018-10-03T11:41:58.598Z,973.76
2018-10-03T11:42:58.573Z,973.71
2018-10-03T11:43:58.644Z,973.71
2018-10-03T11:44:58.459Z,973.68
2018-10-03T11:45:58.455Z,973.69
2018-10-03T11:46:58.378Z,973.65
2018-10-03T11:47:58.340Z,973.64
2018-10-03T11:48:58.377Z,973.68
2018-10-03T11:49:58.245Z,973.76
2018-10-03T11:50:58.222Z,973.77
2018-10-03T11:51:58.234Z,973.77
2018-10-03T11:52:58.103Z,973.79
2018-10-03T11:53:58.103Z,973.74
2018-10-03T11:54:58.018Z,973.76
2018-10-03T11:55:57.990Z,973.75
2018-10-03T11:56:58.059Z,973.76
2018-10-03T11:57:57.876Z,973.79
2018-10-03T11:58:57.873Z,973.73
2018-10-03T11:59:57.785Z,973.78
2018-10-03T12:00:57.766Z,973.77
2018-10-03T12:01:57.761Z,973.73
2018-10-03T12:02:57.735Z,973.79
2018-10-03T12:03:57.637Z,973.72
2018-10-03T12:04:57.555Z,973.69
2018-10-03T12:05:57.518Z,973.73
2018-10-03T12:06:57.651Z,973.71
2018-10-03T12:07:57.441Z,973.69
2018-10-03T12:08:57.402Z,973.76
2018-10-03T12:09:57.316Z,973.66
2018-10-03T12:10:57.286Z,973.70
2018-10-03T12:11:57.407Z,973.72
2018-10-03T12:12:57.291Z,973.74
2018-10-03T12:13:57.165Z,973.77
2018-10-03T12:14:57.163Z,973.76
2018-10-03T12:15:57.052Z,973.77
2018-10-03T12:16:57.084Z,973.76
2018-10-03T12:17:57.055Z,973.77
2018-10-03T12:18:56.926Z,973.71
2018-10-03T12:19:56.931Z,973.70
2018-10-03T12:20:56.931Z,973.70
2018-10-03T12:21:56.810Z,973.70
2018-10-03T12:22:56.814Z,973.69
2018-10-03T12:23:56.693Z,973.72
2018-10-03T12:24:56.693Z,973.69
2018-10-03T12:25:56.612Z,973.68
2018-10-03T12:26:56.578Z,973.71
2018-10-03T12:27:56.577Z,973.69